sensor_id;sensor_type;location;lat;lon;timestamp;pressure;altitude;pressure_sealevel;temperature;humidity
60307;BME280;46155;52.364;6.580;2023-04-05T03:02:04;102168.56;;;0.72;91.19
60307;BME280;46155;52.364;6.580;2023-04-05T03:04:30;102169.88;;;0.76;90.82
60307;BME280;46155;52.364;6.580;2023-04-05T03:07:02;102167.47;;;0.77;90.97
60307;BME280;46155;52.364;6.580;2023-04-05T03:09:28;102164.69;;;0.76;91.75
60307;BME280;46155;52.364;6.580;2023-04-05T03:11:59;102146.97;;;0.64;91.92
60307;BME280;46155;52.364;6.580;2023-04-05T03:14:26;102164.69;;;0.68;91.79
60307;BME280;46155;52.364;6.580;2023-04-05T03:16:51;102162.47;;;0.64;92.12
60307;BME280;46155;52.364;6.580;2023-04-05T03:19:16;102158.75;;;0.55;92.38
60307;BME280;46155;52.364;6.580;2023-04-05T03:21:49;102153.94;;;0.51;92.75
60307;BME280;46155;52.364;6.580;2023-04-05T03:24:15;102150.63;;;0.45;93.02
60307;BME280;46155;52.364;6.580;2023-04-05T03:26:50;102150.25;;;0.49;93.15
60307;BME280;46155;52.364;6.580;2023-04-05T03:29:16;102149.16;;;0.54;92.52
60307;BME280;46155;52.364;6.580;2023-04-05T03:31:41;102154.72;;;0.57;92.26
60307;BME280;46155;52.364;6.580;2023-04-05T03:34:07;102157.66;;;0.60;92.30
60307;BME280;46155;52.364;6.580;2023-04-05T03:36:33;102156.00;;;0.61;91.69
60307;BME280;46155;52.364;6.580;2023-04-05T03:39:09;102152.50;;;0.60;91.96
60307;BME280;46155;52.364;6.580;2023-04-05T03:41:36;102155.63;;;0.58;92.50
60307;BME280;46155;52.364;6.580;2023-04-05T03:44:02;102156.56;;;0.58;91.93
60307;BME280;46155;52.364;6.580;2023-04-05T03:46:27;102152.84;;;0.56;92.02
60307;BME280;46155;52.364;6.580;2023-04-05T03:48:52;102151.19;;;0.57;91.78
60307;BME280;46155;52.364;6.580;2023-04-05T03:51:18;102149.00;;;0.60;90.21
60307;BME280;46155;52.364;6.580;2023-04-05T03:53:44;102146.59;;;0.61;90.22
60307;BME280;46155;52.364;6.580;2023-04-05T03:56:09;102140.66;;;0.55;90.97
60307;BME280;46155;52.364;6.580;2023-04-05T03:58:35;102147.69;;;0.56;90.96
60307;BME280;46155;52.364;6.580;2023-04-05T04:01:01;102151.41;;;0.58;91.44
60307;BME280;46155;52.364;6.580;2023-04-05T04:03:26;102140.09;;;0.58;91.29
60307;BME280;46155;52.364;6.580;2023-04-05T04:05:53;102137.34;;;0.56;91.92
60307;BME280;46155;52.364;6.580;2023-04-05T04:08:18;102140.28;;;0.52;92.01
60307;BME280;46155;52.364;6.580;2023-04-05T04:10:45;102133.47;;;0.53;91.20
60307;BME280;46155;52.364;6.580;2023-04-05T04:13:10;102139.56;;;0.53;91.85
60307;BME280;46155;52.364;6.580;2023-04-05T04:15:35;102127.34;;;0.45;91.35
60307;BME280;46155;52.364;6.580;2023-04-05T04:18:01;102137.16;;;0.47;91.57
60307;BME280;46155;52.364;6.580;2023-04-05T04:20:26;102126.63;;;0.46;91.67
60307;BME280;46155;52.364;6.580;2023-04-05T04:22:51;102132.16;;;0.49;91.77
60307;BME280;46155;52.364;6.580;2023-04-05T04:25:18;102131.25;;;0.48;90.50
60307;BME280;46155;52.364;6.580;2023-04-05T04:27:44;102128.09;;;0.51;90.65
60307;BME280;46155;52.364;6.580;2023-04-05T04:30:14;102127.72;;;0.48;90.73
60307;BME280;46155;52.364;6.580;2023-04-05T04:32:41;102116.28;;;0.39;90.91
60307;BME280;46155;52.364;6.580;2023-04-05T04:35:17;102107.59;;;0.31;91.11
60307;BME280;46155;52.364;6.580;2023-04-05T04:37:46;102120.50;;;0.38;91.32
60307;BME280;46155;52.364;6.580;2023-04-05T04:40:14;102122.53;;;0.33;91.91
60307;BME280;46155;52.364;6.580;2023-04-05T04:42:43;102118.84;;;0.31;92.04
60307;BME280;46155;52.364;6.580;2023-04-05T04:45:12;102122.72;;;0.28;93.41
60307;BME280;46155;52.364;6.580;2023-04-05T04:47:40;102127.69;;;0.26;92.98
60307;BME280;46155;52.364;6.580;2023-04-05T04:50:06;102125.09;;;0.26;93.01
60307;BME280;46155;52.364;6.580;2023-04-05T04:52:32;102123.25;;;0.25;92.74
60307;BME280;46155;52.364;6.580;2023-04-05T04:54:57;102124.56;;;0.29;91.72
60307;BME280;46155;52.364;6.580;2023-04-05T04:57:23;102120.31;;;0.29;91.27
60307;BME280;46155;52.364;6.580;2023-04-05T04:59:49;102108.28;;;0.23;91.55
60307;BME280;46155;52.364;6.580;2023-04-05T05:02:15;102122.72;;;0.28;91.71
60307;BME280;46155;52.364;6.580;2023-04-05T05:04:40;102118.69;;;0.30;91.55
60307;BME280;46155;52.364;6.580;2023-04-05T05:07:06;102132.50;;;0.30;91.42
60307;BME280;46155;52.364;6.580;2023-04-05T05:09:31;102127.34;;;0.30;91.52
60307;BME280;46155;52.364;6.580;2023-04-05T05:11:57;102130.28;;;0.26;92.64
60307;BME280;46155;52.364;6.580;2023-04-05T05:14:23;102133.41;;;0.24;94.29
60307;BME280;46155;52.364;6.580;2023-04-05T05:16:48;102133.22;;;0.22;94.60
60307;BME280;46155;52.364;6.580;2023-04-05T05:19:14;102132.00;;;0.62;95.47
60307;BME280;46155;52.364;6.580;2023-04-05T05:21:39;102126.66;;;0.96;92.77
60307;BME280;46155;52.364;6.580;2023-04-05T05:24:04;102132.78;;;0.82;92.61
60307;BME280;46155;52.364;6.580;2023-04-05T05:26:31;102131.47;;;0.64;93.66
60307;BME280;46155;52.364;6.580;2023-04-05T05:28:59;102130.31;;;0.55;94.42
60307;BME280;46155;52.364;6.580;2023-04-05T05:31:26;102137.16;;;0.47;95.02
60307;BME280;46155;52.364;6.580;2023-04-05T05:33:53;102122.53;;;0.33;94.77
60307;BME280;46155;52.364;6.580;2023-04-05T05:36:18;102124.03;;;0.31;95.98
60307;BME280;46155;52.364;6.580;2023-04-05T05:38:44;102128.41;;;0.25;96.62
60307;BME280;46155;52.364;6.580;2023-04-05T05:41:09;102128.22;;;0.24;97.74
60307;BME280;46155;52.364;6.580;2023-04-05T05:43:34;102122.53;;;0.26;97.59
60307;BME280;46155;52.364;6.580;2023-04-05T05:46:01;102123.63;;;0.28;97.34
60307;BME280;46155;52.364;6.580;2023-04-05T05:48:26;102116.81;;;0.29;97.02
60307;BME280;46155;52.364;6.580;2023-04-05T05:50:51;102124.22;;;0.33;96.95
60307;BME280;46155;52.364;6.580;2023-04-05T05:53:18;102124.03;;;0.31;96.61
60307;BME280;46155;52.364;6.580;2023-04-05T05:55:43;102128.44;;;0.40;96.32
60307;BME280;46155;52.364;6.580;2023-04-05T05:58:09;102110.00;;;0.37;97.01
60307;BME280;46155;52.364;6.580;2023-04-05T06:00:35;102122.56;;;0.48;97.74
60307;BME280;46155;52.364;6.580;2023-04-05T06:03:00;102116.66;;;0.49;97.71
60307;BME280;46155;52.364;6.580;2023-04-05T06:05:26;102114.44;;;0.52;97.37
60307;BME280;46155;52.364;6.580;2023-04-05T06:07:51;102117.81;;;0.58;98.20
60307;BME280;46155;52.364;6.580;2023-04-05T06:10:17;102113.72;;;0.60;97.57
60307;BME280;46155;52.364;6.580;2023-04-05T06:12:42;102102.28;;;0.58;98.45
60307;BME280;46155;52.364;6.580;2023-04-05T06:15:08;102111.13;;;0.67;98.65
60307;BME280;46155;52.364;6.580;2023-04-05T06:17:33;102102.28;;;0.65;98.46
60307;BME280;46155;52.364;6.580;2023-04-05T06:20:04;102114.44;;;0.74;99.13
60307;BME280;46155;52.364;6.580;2023-04-05T06:22:30;102108.91;;;0.78;99.36
60307;BME280;46155;52.364;6.580;2023-04-05T06:24:55;102097.50;;;0.76;99.40
60307;BME280;46155;52.364;6.580;2023-04-05T06:27:20;102110.75;;;1.00;98.34
60307;BME280;46155;52.364;6.580;2023-04-05T06:29:45;102111.13;;;1.18;98.50
60307;BME280;46155;52.364;6.580;2023-04-05T06:32:11;102124.00;;;1.47;96.69
60307;BME280;46155;52.364;6.580;2023-04-05T06:34:36;102119.69;;;1.69;95.66
60307;BME280;46155;52.364;6.580;2023-04-05T06:37:01;102106.13;;;1.86;94.99
60307;BME280;46155;52.364;6.580;2023-04-05T06:39:27;102125.94;;;2.23;93.26
60307;BME280;46155;52.364;6.580;2023-04-05T06:41:52;102116.97;;;2.35;92.52
60307;BME280;46155;52.364;6.580;2023-04-05T06:44:18;102110.19;;;2.52;91.54
60307;BME280;46155;52.364;6.580;2023-04-05T06:46:43;102122.63;;;2.70;90.56
60307;BME280;46155;52.364;6.580;2023-04-05T06:49:08;102121.31;;;2.97;88.76
60307;BME280;46155;52.364;6.580;2023-04-05T06:51:33;102120.69;;;3.07;88.67
60307;BME280;46155;52.364;6.580;2023-04-05T06:53:59;102120.56;;;3.37;88.22
60307;BME280;46155;52.364;6.580;2023-04-05T06:56:24;102124.53;;;3.82;87.18
60307;BME280;46155;52.364;6.580;2023-04-05T06:58:50;102115.34;;;4.01;83.22
60307;BME280;46155;52.364;6.580;2023-04-05T07:01:15;102127.69;;;3.95;79.99
60307;BME280;46155;52.364;6.580;2023-04-05T07:03:41;102124.09;;;4.02;78.23
60307;BME280;46155;52.364;6.580;2023-04-05T07:06:07;102121.25;;;3.91;77.42
60307;BME280;46155;52.364;6.580;2023-04-05T07:08:33;102121.41;;;4.09;78.83
60307;BME280;46155;52.364;6.580;2023-04-05T07:10:59;102125.72;;;4.33;75.52
60307;BME280;46155;52.364;6.580;2023-04-05T07:13:24;102123.16;;;4.17;72.75
60307;BME280;46155;52.364;6.580;2023-04-05T07:15:50;102114.56;;;4.34;75.24
60307;BME280;46155;52.364;6.580;2023-04-05T07:18:16;102118.00;;;4.51;70.56
60307;BME280;46155;52.364;6.580;2023-04-05T07:20:45;102119.75;;;4.59;72.75
60307;BME280;46155;52.364;6.580;2023-04-05T07:23:11;102114.53;;;4.83;73.36
60307;BME280;46155;52.364;6.580;2023-04-05T07:25:39;102123.00;;;5.32;70.07
60307;BME280;46155;52.364;6.580;2023-04-05T07:28:04;102128.22;;;5.41;65.59
60307;BME280;46155;52.364;6.580;2023-04-05T07:30:29;102121.53;;;5.69;69.61
60307;BME280;46155;52.364;6.580;2023-04-05T07:32:56;102132.56;;;5.84;67.78
60307;BME280;46155;52.364;6.580;2023-04-05T07:35:22;102129.53;;;6.32;66.41
60307;BME280;46155;52.364;6.580;2023-04-05T07:37:47;102123.94;;;6.81;66.43
60307;BME280;46155;52.364;6.580;2023-04-05T07:40:13;102121.56;;;7.30;65.10
60307;BME280;46155;52.364;6.580;2023-04-05T07:42:38;102114.41;;;7.18;60.67
60307;BME280;46155;52.364;6.580;2023-04-05T07:45:04;102121.19;;;6.71;57.01
60307;BME280;46155;52.364;6.580;2023-04-05T07:47:32;102122.84;;;6.88;61.78
60307;BME280;46155;52.364;6.580;2023-04-05T07:49:57;102125.47;;;6.79;58.24
60307;BME280;46155;52.364;6.580;2023-04-05T07:52:23;102098.06;;;6.57;57.59
60307;BME280;46155;52.364;6.580;2023-04-05T07:54:48;102119.72;;;7.01;58.12
60307;BME280;46155;52.364;6.580;2023-04-05T07:57:17;102114.09;;;6.79;55.39
60307;BME280;46155;52.364;6.580;2023-04-05T07:59:43;102114.88;;;6.69;55.71
60307;BME280;46155;52.364;6.580;2023-04-05T08:02:09;102115.28;;;6.91;57.00
60307;BME280;46155;52.364;6.580;2023-04-05T08:04:34;102116.78;;;7.06;54.82
60307;BME280;46155;52.364;6.580;2023-04-05T08:06:59;102124.31;;;7.31;56.65
60307;BME280;46155;52.364;6.580;2023-04-05T08:09:25;102116.44;;;7.12;52.06
60307;BME280;46155;52.364;6.580;2023-04-05T08:11:50;102120.81;;;7.31;51.79
60307;BME280;46155;52.364;6.580;2023-04-05T08:14:15;102123.84;;;6.99;50.71
60307;BME280;46155;52.364;6.580;2023-04-05T08:16:42;102113.72;;;7.02;53.41
60307;BME280;46155;52.364;6.580;2023-04-05T08:19:07;102117.91;;;7.28;52.46
60307;BME280;46155;52.364;6.580;2023-04-05T08:21:32;102110.91;;;7.65;51.75
60307;BME280;46155;52.364;6.580;2023-04-05T08:23:58;102126.06;;;7.50;47.97
60307;BME280;46155;52.364;6.580;2023-04-05T08:26:24;102114.69;;;7.21;48.51
60307;BME280;46155;52.364;6.580;2023-04-05T08:28:49;102114.97;;;7.52;51.96
60307;BME280;46155;52.364;6.580;2023-04-05T08:31:15;102112.25;;;8.08;49.23
60307;BME280;46155;52.364;6.580;2023-04-05T08:33:40;102112.44;;;8.39;49.07
60307;BME280;46155;52.364;6.580;2023-04-05T08:36:07;102114.75;;;8.25;47.47
60307;BME280;46155;52.364;6.580;2023-04-05T08:38:33;102105.91;;;7.96;47.47
60307;BME280;46155;52.364;6.580;2023-04-05T08:41:16;102113.16;;;8.27;49.36
60307;BME280;46155;52.364;6.580;2023-04-05T08:44:02;102101.66;;;8.25;46.87
60307;BME280;46155;52.364;6.580;2023-04-05T08:46:32;102112.78;;;8.04;47.93
60307;BME280;46155;52.364;6.580;2023-04-05T08:48:58;102099.25;;;8.18;49.89
60307;BME280;46155;52.364;6.580;2023-04-05T08:51:24;102103.31;;;7.96;46.56
60307;BME280;46155;52.364;6.580;2023-04-05T08:53:50;102098.75;;;8.22;47.39
60307;BME280;46155;52.364;6.580;2023-04-05T08:56:23;102111.13;;;8.15;43.43
60307;BME280;46155;52.364;6.580;2023-04-05T08:59:04;102103.34;;;8.25;45.40
60307;BME280;46155;52.364;6.580;2023-04-05T09:01:31;102097.66;;;7.91;43.83
60307;BME280;46155;52.364;6.580;2023-04-05T09:04:04;102102.50;;;7.97;44.63
60307;BME280;46155;52.364;6.580;2023-04-05T09:06:30;102105.81;;;8.23;45.63
60307;BME280;46155;52.364;6.580;2023-04-05T09:08:58;102101.97;;;8.39;42.54
60307;BME280;46155;52.364;6.580;2023-04-05T09:11:24;102094.34;;;8.32;44.32
60307;BME280;46155;52.364;6.580;2023-04-05T09:13:49;102088.00;;;8.68;44.48
60307;BME280;46155;52.364;6.580;2023-04-05T09:16:16;102090.44;;;8.56;42.67
60307;BME280;46155;52.364;6.580;2023-04-05T09:18:41;102089.06;;;8.21;41.53
60307;BME280;46155;52.364;6.580;2023-04-05T09:21:07;102093.53;;;8.71;46.25
60307;BME280;46155;52.364;6.580;2023-04-05T09:23:34;102092.22;;;9.36;47.45
60307;BME280;46155;52.364;6.580;2023-04-05T09:26:00;102094.69;;;9.86;46.68
60307;BME280;46155;52.364;6.580;2023-04-05T09:28:41;102085.03;;;10.17;43.25
60307;BME280;46155;52.364;6.580;2023-04-05T09:31:07;102082.75;;;10.43;44.22
60307;BME280;46155;52.364;6.580;2023-04-05T09:33:33;102093.63;;;9.74;39.57
60307;BME280;46155;52.364;6.580;2023-04-05T09:35:58;102091.16;;;9.65;42.67
60307;BME280;46155;52.364;6.580;2023-04-05T09:38:43;102103.88;;;9.60;41.78
60307;BME280;46155;52.364;6.580;2023-04-05T09:41:09;102091.94;;;9.23;42.47
60307;BME280;46155;52.364;6.580;2023-04-05T09:46:01;102088.91;;;9.08;44.36
60307;BME280;46155;52.364;6.580;2023-04-05T09:48:45;102091.03;;;9.53;46.04
60307;BME280;46155;52.364;6.580;2023-04-05T09:51:12;102093.41;;;9.81;43.39
60307;BME280;46155;52.364;6.580;2023-04-05T09:53:58;102101.50;;;9.94;43.54
60307;BME280;46155;52.364;6.580;2023-04-05T09:56:25;102090.50;;;9.57;42.26
60307;BME280;46155;52.364;6.580;2023-04-05T09:58:51;102095.22;;;9.20;42.00
60307;BME280;46155;52.364;6.580;2023-04-05T10:01:16;102094.28;;;8.70;43.82
60307;BME280;46155;52.364;6.580;2023-04-05T10:03:48;102085.47;;;8.30;44.42
60307;BME280;46155;52.364;6.580;2023-04-05T10:06:17;102081.06;;;8.68;45.70
60307;BME280;46155;52.364;6.580;2023-04-05T10:08:45;102070.56;;;9.28;48.39
60307;BME280;46155;52.364;6.580;2023-04-05T10:11:11;102074.75;;;9.88;47.83
60307;BME280;46155;52.364;6.580;2023-04-05T10:13:39;102078.06;;;9.44;42.96
60307;BME280;46155;52.364;6.580;2023-04-05T10:16:06;102072.69;;;9.43;42.23
60307;BME280;46155;52.364;6.580;2023-04-05T10:18:40;102049.59;;;8.98;42.78
60307;BME280;46155;52.364;6.580;2023-04-05T10:21:10;102065.06;;;9.05;43.83
60307;BME280;46155;52.364;6.580;2023-04-05T10:23:36;102070.19;;;9.44;43.47
60307;BME280;46155;52.364;6.580;2023-04-05T10:26:07;102055.63;;;9.69;42.70
60307;BME280;46155;52.364;6.580;2023-04-05T10:28:36;102058.47;;;10.03;41.54
60307;BME280;46155;52.364;6.580;2023-04-05T10:34:06;102050.25;;;9.67;44.71
60307;BME280;46155;52.364;6.580;2023-04-05T10:39:09;102050.97;;;10.50;45.33
60307;BME280;46155;52.364;6.580;2023-04-05T10:42:06;102046.22;;;10.56;44.36
60307;BME280;46155;52.364;6.580;2023-04-05T10:44:29;102043.97;;;10.18;39.14
60307;BME280;46155;52.364;6.580;2023-04-05T10:46:55;102046.25;;;10.46;46.53
60307;BME280;46155;52.364;6.580;2023-04-05T10:49:32;102054.72;;;10.21;40.02
60307;BME280;46155;52.364;6.580;2023-04-05T10:52:00;102051.56;;;10.25;40.20
60307;BME280;46155;52.364;6.580;2023-04-05T10:54:27;102052.88;;;9.46;40.82
60307;BME280;46155;52.364;6.580;2023-04-05T10:56:52;102055.53;;;8.76;41.26
60307;BME280;46155;52.364;6.580;2023-04-05T10:59:19;102035.19;;;9.03;44.41
60307;BME280;46155;52.364;6.580;2023-04-05T11:01:46;102045.66;;;9.64;42.04
60307;BME280;46155;52.364;6.580;2023-04-05T11:04:15;102032.47;;;10.06;43.35
60307;BME280;46155;52.364;6.580;2023-04-05T11:06:41;102031.97;;;9.99;40.90
60307;BME280;46155;52.364;6.580;2023-04-05T11:09:19;102028.03;;;9.94;40.39
60307;BME280;46155;52.364;6.580;2023-04-05T11:11:50;102026.41;;;10.17;41.46
60307;BME280;46155;52.364;6.580;2023-04-05T11:16:54;102017.44;;;10.36;41.58
60307;BME280;46155;52.364;6.580;2023-04-05T11:22:08;102029.72;;;10.91;38.02
60307;BME280;46155;52.364;6.580;2023-04-05T11:24:54;102025.31;;;11.02;40.17
60307;BME280;46155;52.364;6.580;2023-04-05T11:27:31;102021.16;;;10.94;38.26
60307;BME280;46155;52.364;6.580;2023-04-05T11:29:59;102021.16;;;10.72;40.25
60307;BME280;46155;52.364;6.580;2023-04-05T11:32:41;102015.06;;;10.61;38.40
60307;BME280;46155;52.364;6.580;2023-04-05T11:35:12;102008.63;;;10.03;38.82
60307;BME280;46155;52.364;6.580;2023-04-05T11:40:30;102007.53;;;10.00;38.99
60307;BME280;46155;52.364;6.580;2023-04-05T11:43:03;101998.97;;;10.13;41.11
60307;BME280;46155;52.364;6.580;2023-04-05T11:45:33;101995.25;;;9.99;38.73
60307;BME280;46155;52.364;6.580;2023-04-05T11:48:04;101998.91;;;10.02;39.43
60307;BME280;46155;52.364;6.580;2023-04-05T11:50:30;102000.84;;;9.61;37.93
60307;BME280;46155;52.364;6.580;2023-04-05T11:53:16;101993.81;;;9.19;39.27
60307;BME280;46155;52.364;6.580;2023-04-05T11:55:44;101988.56;;;9.29;40.72
60307;BME280;46155;52.364;6.580;2023-04-05T11:58:14;101984.88;;;9.38;39.79
60307;BME280;46155;52.364;6.580;2023-04-05T12:00:41;101974.50;;;9.50;41.25
60307;BME280;46155;52.364;6.580;2023-04-05T12:03:13;101967.41;;;10.02;41.01
60307;BME280;46155;52.364;6.580;2023-04-05T12:05:48;101961.00;;;9.45;41.89
60307;BME280;46155;52.364;6.580;2023-04-05T12:08:14;101973.69;;;9.71;41.14
60307;BME280;46155;52.364;6.580;2023-04-05T12:10:40;101970.31;;;9.94;40.02
60307;BME280;46155;52.364;6.580;2023-04-05T12:13:05;101972.47;;;9.78;38.30
60307;BME280;46155;52.364;6.580;2023-04-05T12:15:36;101973.75;;;9.40;39.25
60307;BME280;46155;52.364;6.580;2023-04-05T12:18:02;101959.72;;;8.99;39.61
60307;BME280;46155;52.364;6.580;2023-04-05T12:20:27;101966.03;;;9.11;40.46
60307;BME280;46155;52.364;6.580;2023-04-05T12:22:55;101960.91;;;9.12;40.59
60307;BME280;46155;52.364;6.580;2023-04-05T12:25:21;101957.63;;;9.25;40.89
60307;BME280;46155;52.364;6.580;2023-04-05T12:27:47;101960.25;;;9.46;41.05
60307;BME280;46155;52.364;6.580;2023-04-05T12:30:17;101961.84;;;9.76;40.62
60307;BME280;46155;52.364;6.580;2023-04-05T12:32:53;101955.50;;;9.95;40.65
60307;BME280;46155;52.364;6.580;2023-04-05T12:35:21;101960.44;;;10.12;39.14
60307;BME280;46155;52.364;6.580;2023-04-05T12:37:49;101953.75;;;10.06;40.51
60307;BME280;46155;52.364;6.580;2023-04-05T12:40:20;101956.97;;;9.91;39.56
60307;BME280;46155;52.364;6.580;2023-04-05T12:42:46;101954.22;;;9.90;39.84
60307;BME280;46155;52.364;6.580;2023-04-05T12:45:11;101953.41;;;9.91;41.18
60307;BME280;46155;52.364;6.580;2023-04-05T12:47:57;101951.91;;;10.05;40.47
60307;BME280;46155;52.364;6.580;2023-04-05T12:50:27;101947.19;;;10.11;39.34
60307;BME280;46155;52.364;6.580;2023-04-05T12:53:00;101944.03;;;10.15;38.13
60307;BME280;46155;52.364;6.580;2023-04-05T12:55:29;101944.03;;;10.15;38.72
60307;BME280;46155;52.364;6.580;2023-04-05T12:57:57;101937.53;;;10.22;38.71
60307;BME280;46155;52.364;6.580;2023-04-05T13:00:24;101939.00;;;10.18;38.71
60307;BME280;46155;52.364;6.580;2023-04-05T13:02:51;101932.53;;;10.03;39.94
60307;BME280;46155;52.364;6.580;2023-04-05T13:05:21;101928.53;;;10.08;39.52
60307;BME280;46155;52.364;6.580;2023-04-05T13:07:47;101917.97;;;10.28;41.50
60307;BME280;46155;52.364;6.580;2023-04-05T13:10:12;101918.66;;;10.48;41.41
60307;BME280;46155;52.364;6.580;2023-04-05T13:12:38;101919.53;;;10.37;37.97
60307;BME280;46155;52.364;6.580;2023-04-05T13:15:04;101921.09;;;10.34;39.32
60307;BME280;46155;52.364;6.580;2023-04-05T13:17:29;101910.19;;;10.08;36.76
60307;BME280;46155;52.364;6.580;2023-04-05T13:19:54;101907.31;;;9.82;37.89
60307;BME280;46155;52.364;6.580;2023-04-05T13:22:19;101908.75;;;9.79;37.82
60307;BME280;46155;52.364;6.580;2023-04-05T13:24:45;101898.56;;;9.72;38.04
60307;BME280;46155;52.364;6.580;2023-04-05T13:27:10;101906.41;;;10.04;38.36
60307;BME280;46155;52.364;6.580;2023-04-05T13:29:36;101897.72;;;9.83;36.70
60307;BME280;46155;52.364;6.580;2023-04-05T13:32:01;101894.09;;;9.71;36.96
60307;BME280;46155;52.364;6.580;2023-04-05T13:34:26;101900.88;;;9.79;37.19
60307;BME280;46155;52.364;6.580;2023-04-05T13:36:51;101893.66;;;9.76;37.73
60307;BME280;46155;52.364;6.580;2023-04-05T13:39:17;101890.78;;;9.41;37.03
60307;BME280;46155;52.364;6.580;2023-04-05T13:41:42;101885.19;;;9.26;37.27
60307;BME280;46155;52.364;6.580;2023-04-05T13:44:07;101862.75;;;9.29;37.69
60307;BME280;46155;52.364;6.580;2023-04-05T13:46:32;101875.38;;;9.66;39.00
60307;BME280;46155;52.364;6.580;2023-04-05T13:48:58;101863.91;;;9.76;38.77
60307;BME280;46155;52.364;6.580;2023-04-05T13:51:23;101871.13;;;10.00;39.12
60307;BME280;46155;52.364;6.580;2023-04-05T13:53:48;101863.50;;;10.26;37.82
60307;BME280;46155;52.364;6.580;2023-04-05T13:56:14;101873.56;;;10.31;37.13
60307;BME280;46155;52.364;6.580;2023-04-05T13:58:39;101847.22;;;10.08;35.72
60307;BME280;46155;52.364;6.580;2023-04-05T14:01:04;101865.56;;;10.08;37.32
60307;BME280;46155;52.364;6.580;2023-04-05T14:03:30;101862.03;;;10.07;36.83
60307;BME280;46155;52.364;6.580;2023-04-05T14:05:55;101857.91;;;10.21;39.27
60307;BME280;46155;52.364;6.580;2023-04-05T14:08:20;101853.22;;;10.39;38.77
60307;BME280;46155;52.364;6.580;2023-04-05T14:10:46;101854.53;;;10.56;39.08
60307;BME280;46155;52.364;6.580;2023-04-05T14:13:11;101855.47;;;10.68;38.09
60307;BME280;46155;52.364;6.580;2023-04-05T14:15:40;101852.34;;;10.28;36.19
60307;BME280;46155;52.364;6.580;2023-04-05T14:18:07;101852.88;;;10.02;35.84
60307;BME280;46155;52.364;6.580;2023-04-05T14:20:32;101854.09;;;9.73;36.71
60307;BME280;46155;52.364;6.580;2023-04-05T14:22:57;101846.25;;;9.95;37.84
60307;BME280;46155;52.364;6.580;2023-04-05T14:25:23;101851.25;;;9.92;36.92
60307;BME280;46155;52.364;6.580;2023-04-05T14:27:48;101848.44;;;9.79;37.45
60307;BME280;46155;52.364;6.580;2023-04-05T14:30:13;101843.75;;;9.97;38.20
60307;BME280;46155;52.364;6.580;2023-04-05T14:32:38;101838.06;;;10.03;37.77
60307;BME280;46155;52.364;6.580;2023-04-05T14:35:04;101837.47;;;10.17;37.69
60307;BME280;46155;52.364;6.580;2023-04-05T14:37:30;101829.69;;;10.19;37.94
60307;BME280;46155;52.364;6.580;2023-04-05T14:39:55;101834.16;;;9.97;36.94
60307;BME280;46155;52.364;6.580;2023-04-05T14:42:20;101819.28;;;9.86;39.23
60307;BME280;46155;52.364;6.580;2023-04-05T14:44:46;101832.06;;;10.04;38.37
60307;BME280;46155;52.364;6.580;2023-04-05T14:47:12;101831.47;;;10.08;38.39
60307;BME280;46155;52.364;6.580;2023-04-05T14:49:37;101815.59;;;10.28;37.99
60307;BME280;46155;52.364;6.580;2023-04-05T14:52:02;101813.41;;;10.00;36.75
60307;BME280;46155;52.364;6.580;2023-04-05T14:54:28;101816.00;;;10.11;37.88
60307;BME280;46155;52.364;6.580;2023-04-05T14:56:53;101807.94;;;10.20;38.33
60307;BME280;46155;52.364;6.580;2023-04-05T14:59:18;101808.72;;;10.19;38.70
60307;BME280;46155;52.364;6.580;2023-04-05T15:01:44;101808.72;;;9.96;38.75
60307;BME280;46155;52.364;6.580;2023-04-05T15:04:11;101808.13;;;10.11;39.31
60307;BME280;46155;52.364;6.580;2023-04-05T15:06:36;101807.50;;;10.25;37.25
60307;BME280;46155;52.364;6.580;2023-04-05T15:09:01;101803.03;;;10.24;38.06
60307;BME280;46155;52.364;6.580;2023-04-05T15:11:27;101803.34;;;10.17;37.44
60307;BME280;46155;52.364;6.580;2023-04-05T15:13:53;101795.56;;;10.07;36.22
60307;BME280;46155;52.364;6.580;2023-04-05T15:16:18;101792.50;;;10.12;38.39
60307;BME280;46155;52.364;6.580;2023-04-05T15:18:43;101792.72;;;10.15;37.30
60307;BME280;46155;52.364;6.580;2023-04-05T15:21:08;101794.59;;;10.28;37.70
60307;BME280;46155;52.364;6.580;2023-04-05T15:23:34;101797.56;;;10.33;37.85
60307;BME280;46155;52.364;6.580;2023-04-05T15:26:00;101792.84;;;10.17;35.76
60307;BME280;46155;52.364;6.580;2023-04-05T15:28:25;101794.94;;;9.99;35.23
60307;BME280;46155;52.364;6.580;2023-04-05T15:30:50;101794.03;;;9.98;35.35
60307;BME280;46155;52.364;6.580;2023-04-05T15:33:16;101791.56;;;10.12;36.54
60307;BME280;46155;52.364;6.580;2023-04-05T15:35:41;101787.19;;;10.00;37.68
60307;BME280;46155;52.364;6.580;2023-04-05T15:38:07;101768.03;;;10.02;38.87
60307;BME280;46155;52.364;6.580;2023-04-05T15:40:32;101778.81;;;10.16;39.38
60307;BME280;46155;52.364;6.580;2023-04-05T15:42:57;101772.63;;;10.16;40.59
60307;BME280;46155;52.364;6.580;2023-04-05T15:45:23;101777.34;;;10.54;45.03
60307;BME280;46155;52.364;6.580;2023-04-05T15:47:48;101777.25;;;10.64;39.71
60307;BME280;46155;52.364;6.580;2023-04-05T15:50:13;101774.94;;;10.57;39.43
60307;BME280;46155;52.364;6.580;2023-04-05T15:52:38;101773.03;;;10.32;38.07
60307;BME280;46155;52.364;6.580;2023-04-05T15:55:04;101766.41;;;10.26;38.32
60307;BME280;46155;52.364;6.580;2023-04-05T15:57:29;101772.28;;;10.11;38.63
60307;BME280;46155;52.364;6.580;2023-04-05T15:59:55;101766.94;;;10.10;38.22
60307;BME280;46155;52.364;6.580;2023-04-05T16:02:20;101771.44;;;10.00;38.26
60307;BME280;46155;52.364;6.580;2023-04-05T16:04:45;101778.16;;;9.75;37.70
60307;BME280;46155;52.364;6.580;2023-04-05T16:07:11;101771.69;;;9.59;37.80
60307;BME280;46155;52.364;6.580;2023-04-05T16:09:36;101774.84;;;9.55;37.95
60307;BME280;46155;52.364;6.580;2023-04-05T16:12:02;101766.75;;;9.52;37.62
60307;BME280;46155;52.364;6.580;2023-04-05T16:14:27;101757.47;;;9.45;37.59